This is the latest recevied weather packets stored in our database for station/object KB1YYC. If no packets are shown the sender has not sent any weather packets the latest 10 day(s).
| Time | Temp. | Humidity | Pressure | Rain* | Wind** | Luminosity | Snow |
|---|---|---|---|---|---|---|---|
| 1778052126 | 16.11° C | 71% | 1008.6 hPa | 0 mm | - | 0 W/m² | - |
| 1778051823 | 16.11° C | 72% | 1008.6 hPa | 0 mm | - | 0 W/m² | - |
| 1778051521 | 16.11° C | 72% | 1008.5 hPa | 0 mm | - | 0 W/m² | - |
| 1778051218 | 16.11° C | 72% | 1008.5 hPa | 0 mm | - | 0 W/m² | - |
| 1778050915 | 16.67° C | 71% | 1008.5 hPa | 0 mm | - | 0 W/m² | - |
| 1778050613 | 16.67° C | 70% | 1008.5 hPa | 0 mm | - | 0 W/m² | - |
| 1778050309 | 16.67° C | 71% | 1008.3 hPa | 0 mm | - | 0 W/m² | - |
| 1778050006 | 16.11° C | 72% | 1008.3 hPa | 0 mm | - | 0 W/m² | - |
| 1778049702 | 15.56° C | 74% | 1008.3 hPa | 0 mm | - | 0 W/m² | - |
| 1778049400 | 13.89° C | 79% | 1008.1 hPa | 0 mm | - | 0 W/m² | - |
| 1778049097 | 12.78° C | 85% | 1008.3 hPa | 0 mm | - | 0 W/m² | - |
| 1778048795 | 12.22° C | 86% | 1008.3 hPa | 0 mm | - | 0 W/m² | - |
| 1778048492 | 12.22° C | 87% | 1008.2 hPa | 0 mm | - | 0 W/m² | - |
| 1778048187 | 12.22° C | 88% | 1008.3 hPa | 0 mm | - | 0 W/m² | - |
| 1778047886 | 12.22° C | 88% | 1008.3 hPa | 0 mm | - | 0 W/m² | - |
| 1778047584 | 11.67° C | 88% | 1008.3 hPa | 0 mm | - | 0 W/m² | - |
| 1778047280 | 12.22° C | 88% | 1008.2 hPa | 0 mm | - | 0 W/m² | - |
| 1778046978 | 12.22° C | 87% | 1008.3 hPa | 0 mm | - | 0 W/m² | - |
| 1778046674 | 12.22° C | 87% | 1008.2 hPa | 0 mm | - | 0 W/m² | - |
| 1778046371 | 12.78° C | 86% | 1008.4 hPa | 0 mm | - | 0 W/m² | - |
| 1778046067 | 12.22° C | 87% | 1008.7 hPa | 0 mm | - | 0 W/m² | - |
| 1778045765 | 12.22° C | 87% | 1008.5 hPa | 0 mm | - | 0 W/m² | - |
| 1778045464 | 12.78° C | 87% | 1008.5 hPa | 0 mm | - | 0 W/m² | - |
| 1778045161 | 12.78° C | 87% | 1008.4 hPa | 0 mm | - | 0 W/m² | - |
| 1778044859 | 12.78° C | 87% | 1008.4 hPa | 0 mm | - | 0 W/m² | - |
* Rain latest hour (hover to see other rain measurements)
** Current wind speed in m/s (hover to see current wind gust speed)